sensor_id;sensor_type;location;lat;lon;timestamp;pressure;altitude;pressure_sealevel;temperature;humidity
12475;BME280;6302;42.624;23.334;2022-10-03T00:01:52;93318.69;;;11.96;100.00
12475;BME280;6302;42.624;23.334;2022-10-03T00:04:40;93303.53;;;11.93;100.00
12475;BME280;6302;42.624;23.334;2022-10-03T00:07:23;93312.75;;;11.85;100.00
12475;BME280;6302;42.624;23.334;2022-10-03T00:10:04;93303.28;;;11.84;100.00
12475;BME280;6302;42.624;23.334;2022-10-03T00:12:44;93301.84;;;11.76;100.00
12475;BME280;6302;42.624;23.334;2022-10-03T00:15:17;93287.88;;;11.72;100.00
12475;BME280;6302;42.624;23.334;2022-10-03T00:17:54;93283.38;;;11.69;100.00
12475;BME280;6302;42.624;23.334;2022-10-03T00:20:46;93282.97;;;11.70;100.00
12475;BME280;6302;42.624;23.334;2022-10-03T00:23:17;93265.13;;;11.71;100.00
12475;BME280;6302;42.624;23.334;2022-10-03T00:25:54;93265.94;;;11.68;100.00
12475;BME280;6302;42.624;23.334;2022-10-03T00:28:53;93261.41;;;11.65;100.00
12475;BME280;6302;42.624;23.334;2022-10-03T00:31:24;93255.47;;;11.54;100.00
12475;BME280;6302;42.624;23.334;2022-10-03T00:34:07;93261.13;;;11.56;100.00
12475;BME280;6302;42.624;23.334;2022-10-03T00:36:43;93265.28;;;11.57;100.00
12475;BME280;6302;42.624;23.334;2022-10-03T00:39:35;93265.63;;;11.59;100.00
12475;BME280;6302;42.624;23.334;2022-10-03T00:42:24;93273.94;;;11.61;100.00
12475;BME280;6302;42.624;23.334;2022-10-03T00:45:34;93277.78;;;11.60;100.00
12475;BME280;6302;42.624;23.334;2022-10-03T00:48:43;93280.44;;;11.60;100.00
12475;BME280;6302;42.624;23.334;2022-10-03T00:51:26;93272.06;;;11.61;100.00
12475;BME280;6302;42.624;23.334;2022-10-03T00:54:14;93278.06;;;11.65;100.00
12475;BME280;6302;42.624;23.334;2022-10-03T00:57:02;93284.91;;;11.63;100.00
12475;BME280;6302;42.624;23.334;2022-10-03T00:59:47;93275.06;;;11.63;100.00
12475;BME280;6302;42.624;23.334;2022-10-03T01:02:33;93273.19;;;11.60;100.00
12475;BME280;6302;42.624;23.334;2022-10-03T01:05:16;93274.75;;;11.58;100.00
12475;BME280;6302;42.624;23.334;2022-10-03T01:08:05;93272.16;;;11.54;100.00
12475;BME280;6302;42.624;23.334;2022-10-03T01:10:42;93267.63;;;11.51;100.00
12475;BME280;6302;42.624;23.334;2022-10-03T01:13:23;93256.66;;;11.49;100.00
12475;BME280;6302;42.624;23.334;2022-10-03T01:15:58;93254.78;;;11.46;100.00
12475;BME280;6302;42.624;23.334;2022-10-03T01:18:39;93249.09;;;11.48;100.00
12475;BME280;6302;42.624;23.334;2022-10-03T01:21:23;93255.28;;;11.38;100.00
12475;BME280;6302;42.624;23.334;2022-10-03T01:24:11;93256.06;;;11.35;100.00
12475;BME280;6302;42.624;23.334;2022-10-03T01:26:52;93256.06;;;11.35;100.00
12475;BME280;6302;42.624;23.334;2022-10-03T01:29:25;93254.13;;;11.39;100.00
12475;BME280;6302;42.624;23.334;2022-10-03T01:32:14;93253.38;;;11.38;100.00
12475;BME280;6302;42.624;23.334;2022-10-03T01:34:46;93248.88;;;11.35;100.00
12475;BME280;6302;42.624;23.334;2022-10-03T01:37:22;93248.13;;;11.35;100.00
12475;BME280;6302;42.624;23.334;2022-10-03T01:39:58;93248.13;;;11.35;100.00
12475;BME280;6302;42.624;23.334;2022-10-03T01:42:36;93233.44;;;11.27;100.00
12475;BME280;6302;42.624;23.334;2022-10-03T01:45:16;93245.91;;;11.30;100.00
12475;BME280;6302;42.624;23.334;2022-10-03T01:47:56;93235.03;;;11.21;100.00
12475;BME280;6302;42.624;23.334;2022-10-03T01:50:31;93247.38;;;11.31;100.00
12475;BME280;6302;42.624;23.334;2022-10-03T01:53:05;93241.31;;;11.34;100.00
12475;BME280;6302;42.624;23.334;2022-10-03T01:55:43;93237.50;;;11.35;100.00
12475;BME280;6302;42.624;23.334;2022-10-03T01:58:12;93240.19;;;11.31;100.00
12475;BME280;6302;42.624;23.334;2022-10-03T02:00:55;93242.84;;;11.31;100.00
12475;BME280;6302;42.624;23.334;2022-10-03T02:03:27;93235.63;;;11.32;100.00
12475;BME280;6302;42.624;23.334;2022-10-03T02:06:05;93240.59;;;11.30;100.00
12475;BME280;6302;42.624;23.334;2022-10-03T02:08:45;93239.06;;;11.32;100.00
12475;BME280;6302;42.624;23.334;2022-10-03T02:11:25;93221.31;;;11.26;100.00
12475;BME280;6302;42.624;23.334;2022-10-03T02:13:58;93238.25;;;11.35;100.00
12475;BME280;6302;42.624;23.334;2022-10-03T02:16:39;93233.34;;;11.34;100.00
12475;BME280;6302;42.624;23.334;2022-10-03T02:19:14;93228.78;;;11.34;100.00
12475;BME280;6302;42.624;23.334;2022-10-03T02:21:47;93225.34;;;11.37;100.00
12475;BME280;6302;42.624;23.334;2022-10-03T02:24:26;93228.38;;;11.36;100.00
12475;BME280;6302;42.624;23.334;2022-10-03T02:27:21;93239.75;;;11.36;100.00
12475;BME280;6302;42.624;23.334;2022-10-03T02:30:08;93232.56;;;11.37;100.00
12475;BME280;6302;42.624;23.334;2022-10-03T02:36:14;93233.69;;;11.36;100.00
12475;BME280;6302;42.624;23.334;2022-10-03T02:45:14;93228.38;;;11.36;100.00
12475;BME280;6302;42.624;23.334;2022-10-03T02:48:05;93228.38;;;11.36;100.00
12475;BME280;6302;42.624;23.334;2022-10-03T02:50:51;93232.97;;;11.35;100.00
12475;BME280;6302;42.624;23.334;2022-10-03T02:56:48;93228.31;;;11.43;100.00
12475;BME280;6302;42.624;23.334;2022-10-03T02:59:43;93231.25;;;11.48;100.00
12475;BME280;6302;42.624;23.334;2022-10-03T03:02:41;93236.94;;;11.50;100.00
12475;BME280;6302;42.624;23.334;2022-10-03T03:05:40;93225.91;;;11.52;100.00
12475;BME280;6302;42.624;23.334;2022-10-03T03:11:46;93218.50;;;11.40;100.00
12475;BME280;6302;42.624;23.334;2022-10-03T03:14:39;93219.91;;;11.48;100.00
12475;BME280;6302;42.624;23.334;2022-10-03T03:17:28;93225.22;;;11.48;100.00
12475;BME280;6302;42.624;23.334;2022-10-03T03:20:21;93228.22;;;11.50;100.00
12475;BME280;6302;42.624;23.334;2022-10-03T03:23:02;93224.47;;;11.47;100.00
12475;BME280;6302;42.624;23.334;2022-10-03T03:25:55;93217.66;;;11.46;100.00
12475;BME280;6302;42.624;23.334;2022-10-03T03:28:35;93224.47;;;11.47;100.00
12475;BME280;6302;42.624;23.334;2022-10-03T03:31:10;93227.50;;;11.46;100.00
12475;BME280;6302;42.624;23.334;2022-10-03T03:33:45;93226.41;;;11.43;100.00
12475;BME280;6302;42.624;23.334;2022-10-03T03:36:23;93221.16;;;11.40;100.00
12475;BME280;6302;42.624;23.334;2022-10-03T03:38:59;93214.38;;;11.35;100.00
12475;BME280;6302;42.624;23.334;2022-10-03T03:41:39;93219.28;;;11.37;100.00
12475;BME280;6302;42.624;23.334;2022-10-03T03:44:29;93198.25;;;11.23;100.00
12475;BME280;6302;42.624;23.334;2022-10-03T03:47:12;93212.63;;;11.22;100.00
12475;BME280;6302;42.624;23.334;2022-10-03T03:50:05;93203.94;;;11.21;100.00
12475;BME280;6302;42.624;23.334;2022-10-03T03:52:48;93198.25;;;11.23;100.00
12475;BME280;6302;42.624;23.334;2022-10-03T03:55:33;93198.59;;;11.25;100.00
12475;BME280;6302;42.624;23.334;2022-10-03T03:58:16;93192.16;;;11.26;100.00
12475;BME280;6302;42.624;23.334;2022-10-03T04:01:03;93190.63;;;11.25;100.00
12475;BME280;6302;42.624;23.334;2022-10-03T04:03:48;93185.34;;;11.25;100.00
12475;BME280;6302;42.624;23.334;2022-10-03T04:06:45;93189.88;;;11.24;100.00
12475;BME280;6302;42.624;23.334;2022-10-03T04:09:38;93178.50;;;11.24;100.00
12475;BME280;6302;42.624;23.334;2022-10-03T04:12:15;93185.34;;;11.21;100.00
12475;BME280;6302;42.624;23.334;2022-10-03T04:15:03;93183.88;;;11.20;100.00
12475;BME280;6302;42.624;23.334;2022-10-03T04:17:48;93181.97;;;11.21;100.00
12475;BME280;6302;42.624;23.334;2022-10-03T04:20:59;93179.69;;;11.23;100.00
12475;BME280;6302;42.624;23.334;2022-10-03T04:23:42;93183.78;;;11.27;100.00
12475;BME280;6302;42.624;23.334;2022-10-03T04:26:35;93187.56;;;11.26;100.00
12475;BME280;6302;42.624;23.334;2022-10-03T04:32:14;93190.97;;;11.27;100.00
12475;BME280;6302;42.624;23.334;2022-10-03T04:34:54;93186.03;;;11.29;100.00
12475;BME280;6302;42.624;23.334;2022-10-03T04:37:31;93194.28;;;11.38;100.00
12475;BME280;6302;42.624;23.334;2022-10-03T04:40:20;93190.78;;;11.41;100.00
12475;BME280;6302;42.624;23.334;2022-10-03T04:42:58;93176.59;;;11.28;100.00
12475;BME280;6302;42.624;23.334;2022-10-03T04:45:39;93187.56;;;11.26;100.00
12475;BME280;6302;42.624;23.334;2022-10-03T04:48:13;93181.81;;;11.31;100.00
12475;BME280;6302;42.624;23.334;2022-10-03T04:50:50;93186.75;;;11.33;100.00
12475;BME280;6302;42.624;23.334;2022-10-03T04:53:33;93170.09;;;11.29;100.00
12475;BME280;6302;42.624;23.334;2022-10-03T04:56:17;93176.97;;;11.26;100.00
12475;BME280;6302;42.624;23.334;2022-10-03T04:58:50;93187.88;;;11.32;100.00
12475;BME280;6302;42.624;23.334;2022-10-03T05:01:24;93187.97;;;11.25;100.00
12475;BME280;6302;42.624;23.334;2022-10-03T05:04:01;93173.09;;;11.31;100.00
12475;BME280;6302;42.624;23.334;2022-10-03T05:06:43;93176.06;;;11.36;100.00
12475;BME280;6302;42.624;23.334;2022-10-03T05:09:23;93187.34;;;11.44;100.00
12475;BME280;6302;42.624;23.334;2022-10-03T05:12:00;93190.28;;;11.53;100.00
12475;BME280;6302;42.624;23.334;2022-10-03T05:14:43;93201.50;;;11.64;100.00
12475;BME280;6302;42.624;23.334;2022-10-03T05:17:18;93188.56;;;11.69;100.00
12475;BME280;6302;42.624;23.334;2022-10-03T05:20:14;93190.00;;;11.74;100.00
12475;BME280;6302;42.624;23.334;2022-10-03T05:22:54;93189.22;;;11.77;100.00
12475;BME280;6302;42.624;23.334;2022-10-03T05:25:30;93181.53;;;11.83;100.00
12475;BME280;6302;42.624;23.334;2022-10-03T05:28:14;93180.44;;;11.80;100.00
12475;BME280;6302;42.624;23.334;2022-10-03T05:30:47;93179.69;;;11.80;100.00
12475;BME280;6302;42.624;23.334;2022-10-03T05:33:24;93182.34;;;11.80;100.00
12475;BME280;6302;42.624;23.334;2022-10-03T05:36:05;93183.81;;;11.84;100.00
12475;BME280;6302;42.624;23.334;2022-10-03T05:39:00;93133.69;;;11.59;100.00
12475;BME280;6302;42.624;23.334;2022-10-03T05:41:30;93175.13;;;12.07;100.00
12475;BME280;6302;42.624;23.334;2022-10-03T05:44:05;93171.88;;;12.19;100.00
12475;BME280;6302;42.624;23.334;2022-10-03T05:46:43;93160.34;;;12.29;100.00
12475;BME280;6302;42.624;23.334;2022-10-03T05:49:30;93168.53;;;12.38;100.00
12475;BME280;6302;42.624;23.334;2022-10-03T05:52:41;93152.06;;;12.47;100.00
12475;BME280;6302;42.624;23.334;2022-10-03T05:55:28;93148.53;;;12.53;100.00
12475;BME280;6302;42.624;23.334;2022-10-03T05:58:30;93151.41;;;12.62;100.00
12475;BME280;6302;42.624;23.334;2022-10-03T06:01:23;93161.50;;;12.71;100.00
12475;BME280;6302;42.624;23.334;2022-10-03T06:04:14;93170.16;;;12.75;100.00
12475;BME280;6302;42.624;23.334;2022-10-03T06:06:51;93176.41;;;12.65;100.00
12475;BME280;6302;42.624;23.334;2022-10-03T06:09:41;93184.84;;;12.60;100.00
12475;BME280;6302;42.624;23.334;2022-10-03T06:12:18;93190.63;;;12.55;100.00
12475;BME280;6302;42.624;23.334;2022-10-03T06:15:07;93193.88;;;12.66;100.00
12475;BME280;6302;42.624;23.334;2022-10-03T06:17:51;93207.31;;;12.59;100.00
12475;BME280;6302;42.624;23.334;2022-10-03T06:26:54;93199.69;;;12.80;100.00
12475;BME280;6302;42.624;23.334;2022-10-03T06:29:46;93198.13;;;12.83;100.00
12475;BME280;6302;42.624;23.334;2022-10-03T06:32:40;93197.19;;;12.93;100.00
12475;BME280;6302;42.624;23.334;2022-10-03T06:35:46;93203.03;;;13.08;100.00
12475;BME280;6302;42.624;23.334;2022-10-03T06:44:43;93202.59;;;13.29;100.00
12475;BME280;6302;42.624;23.334;2022-10-03T06:47:39;93207.13;;;13.32;100.00
12475;BME280;6302;42.624;23.334;2022-10-03T06:50:29;93195.78;;;13.28;100.00
12475;BME280;6302;42.624;23.334;2022-10-03T06:53:15;93204.78;;;13.34;100.00
12475;BME280;6302;42.624;23.334;2022-10-03T06:55:53;93194.09;;;13.37;100.00
12475;BME280;6302;42.624;23.334;2022-10-03T06:58:44;93220.41;;;13.51;100.00
12475;BME280;6302;42.624;23.334;2022-10-03T07:10:32;93241.56;;;13.39;100.00
12475;BME280;6302;42.624;23.334;2022-10-03T07:13:29;93254.53;;;13.37;100.00
12475;BME280;6302;42.624;23.334;2022-10-03T07:16:34;93257.63;;;13.35;100.00
12475;BME280;6302;42.624;23.334;2022-10-03T07:19:41;93270.38;;;13.24;100.00
12475;BME280;6302;42.624;23.334;2022-10-03T07:28:51;93301.72;;;12.90;100.00
12475;BME280;6302;42.624;23.334;2022-10-03T07:31:34;93301.66;;;12.70;100.00
12475;BME280;6302;42.624;23.334;2022-10-03T07:37:18;93312.16;;;12.81;100.00
12475;BME280;6302;42.624;23.334;2022-10-03T07:40:31;93301.63;;;12.74;100.00
12475;BME280;6302;42.624;23.334;2022-10-03T07:49:50;93312.53;;;12.56;100.00
12475;BME280;6302;42.624;23.334;2022-10-03T07:52:43;93300.22;;;12.66;100.00
12475;BME280;6302;42.624;23.334;2022-10-03T07:55:30;93308.44;;;12.75;100.00
12475;BME280;6302;42.624;23.334;2022-10-03T07:58:34;93315.13;;;12.60;100.00
12475;BME280;6302;42.624;23.334;2022-10-03T08:01:38;93311.53;;;12.47;100.00
12475;BME280;6302;42.624;23.334;2022-10-03T08:07:32;93306.69;;;12.42;100.00
12475;BME280;6302;42.624;23.334;2022-10-03T08:10:37;93301.28;;;12.45;100.00
12475;BME280;6302;42.624;23.334;2022-10-03T08:13:26;93302.75;;;12.50;100.00
12475;BME280;6302;42.624;23.334;2022-10-03T08:16:11;93306.47;;;12.56;100.00
12475;BME280;6302;42.624;23.334;2022-10-03T08:19:00;93304.81;;;12.62;100.00
12475;BME280;6302;42.624;23.334;2022-10-03T08:21:39;93304.81;;;12.62;100.00
12475;BME280;6302;42.624;23.334;2022-10-03T08:24:26;93319.22;;;12.64;100.00
12475;BME280;6302;42.624;23.334;2022-10-03T08:27:11;93310.06;;;12.69;100.00
12475;BME280;6302;42.624;23.334;2022-10-03T08:30:03;93317.91;;;12.76;100.00
12475;BME280;6302;42.624;23.334;2022-10-03T08:32:47;93317.50;;;12.77;100.00
12475;BME280;6302;42.624;23.334;2022-10-03T08:44:32;93320.34;;;12.90;100.00
12475;BME280;6302;42.624;23.334;2022-10-03T08:47:24;93323.22;;;12.99;100.00
12475;BME280;6302;42.624;23.334;2022-10-03T08:50:06;93321.78;;;12.94;100.00
12475;BME280;6302;42.624;23.334;2022-10-03T08:52:55;93325.41;;;13.04;100.00
12475;BME280;6302;42.624;23.334;2022-10-03T08:55:44;93320.22;;;12.97;100.00
12475;BME280;6302;42.624;23.334;2022-10-03T08:58:30;93329.91;;;13.11;100.00
12475;BME280;6302;42.624;23.334;2022-10-03T09:01:19;93332.16;;;13.35;100.00
12475;BME280;6302;42.624;23.334;2022-10-03T09:07:02;93322.53;;;13.81;100.00
12475;BME280;6302;42.624;23.334;2022-10-03T09:13:21;93323.41;;;14.29;100.00
12475;BME280;6302;42.624;23.334;2022-10-03T09:19:06;93335.41;;;14.41;100.00
12475;BME280;6302;42.624;23.334;2022-10-03T09:21:57;93321.81;;;14.52;100.00
12475;BME280;6302;42.624;23.334;2022-10-03T09:27:42;93315.84;;;14.80;100.00
12475;BME280;6302;42.624;23.334;2022-10-03T09:30:20;93303.75;;;14.75;100.00
12475;BME280;6302;42.624;23.334;2022-10-03T09:39:05;93315.06;;;14.79;100.00
12475;BME280;6302;42.624;23.334;2022-10-03T09:44:56;93298.75;;;14.61;100.00
12475;BME280;6302;42.624;23.334;2022-10-03T09:48:16;93307.41;;;14.81;100.00
12475;BME280;6302;42.624;23.334;2022-10-03T09:51:23;93313.25;;;14.92;100.00
12475;BME280;6302;42.624;23.334;2022-10-03T09:54:41;93323.16;;;14.92;100.00
12475;BME280;6302;42.624;23.334;2022-10-03T09:57:41;93305.22;;;14.76;100.00
12475;BME280;6302;42.624;23.334;2022-10-03T10:00:16;93299.25;;;14.72;100.00
12475;BME280;6302;42.624;23.334;2022-10-03T10:03:25;93302.06;;;14.81;100.00
12475;BME280;6302;42.624;23.334;2022-10-03T10:06:18;93294.56;;;14.76;100.00
12475;BME280;6302;42.624;23.334;2022-10-03T10:18:39;93299.03;;;15.28;100.00
12475;BME280;6302;42.624;23.334;2022-10-03T10:21:49;93305.22;;;15.09;100.00
12475;BME280;6302;42.624;23.334;2022-10-03T10:28:05;93313.56;;;15.11;100.00
12475;BME280;6302;42.624;23.334;2022-10-03T10:30:56;93306.75;;;14.93;100.00
12475;BME280;6302;42.624;23.334;2022-10-03T10:34:07;93290.75;;;14.93;100.00
12475;BME280;6302;42.624;23.334;2022-10-03T10:37:13;93307.56;;;15.07;100.00
12475;BME280;6302;42.624;23.334;2022-10-03T10:40:09;93309.56;;;15.03;100.00
12475;BME280;6302;42.624;23.334;2022-10-03T10:58:46;93315.19;;;15.37;100.00
12475;BME280;6302;42.624;23.334;2022-10-03T11:01:52;93318.50;;;15.57;100.00
12475;BME280;6302;42.624;23.334;2022-10-03T11:07:49;93316.44;;;15.48;100.00
12475;BME280;6302;42.624;23.334;2022-10-03T11:10:36;93313.16;;;15.57;100.00
12475;BME280;6302;42.624;23.334;2022-10-03T11:13:35;93300.00;;;15.91;100.00
12475;BME280;6302;42.624;23.334;2022-10-03T11:16:43;93299.78;;;15.86;100.00
12475;BME280;6302;42.624;23.334;2022-10-03T11:26:18;93313.84;;;15.29;100.00
12475;BME280;6302;42.624;23.334;2022-10-03T11:29:18;93318.84;;;15.43;100.00
12475;BME280;6302;42.624;23.334;2022-10-03T11:32:18;93319.91;;;15.01;100.00
12475;BME280;6302;42.624;23.334;2022-10-03T11:38:07;93318.91;;;14.94;100.00
12475;BME280;6302;42.624;23.334;2022-10-03T11:40:48;93321.22;;;15.09;100.00
12475;BME280;6302;42.624;23.334;2022-10-03T11:43:44;93328.66;;;15.17;100.00
12475;BME280;6302;42.624;23.334;2022-10-03T11:46:22;93317.31;;;14.97;100.00
12475;BME280;6302;42.624;23.334;2022-10-03T11:48:54;93325.34;;;14.97;100.00
12475;BME280;6302;42.624;23.334;2022-10-03T11:51:35;93305.06;;;15.16;100.00
12475;BME280;6302;42.624;23.334;2022-10-03T11:54:14;93316.56;;;15.13;100.00
12475;BME280;6302;42.624;23.334;2022-10-03T11:56:45;93317.41;;;15.10;100.00
12475;BME280;6302;42.624;23.334;2022-10-03T11:59:34;93308.97;;;15.11;100.00
12475;BME280;6302;42.624;23.334;2022-10-03T12:02:14;93312.25;;;15.03;100.00
12475;BME280;6302;42.624;23.334;2022-10-03T12:04:53;93315.88;;;15.09;100.00
12475;BME280;6302;42.624;23.334;2022-10-03T12:07:39;93300.81;;;15.18;100.00
12475;BME280;6302;42.624;23.334;2022-10-03T12:10:34;93306.53;;;15.33;100.00
12475;BME280;6302;42.624;23.334;2022-10-03T12:13:08;93317.53;;;15.19;100.00
12475;BME280;6302;42.624;23.334;2022-10-03T12:15:44;93320.97;;;15.35;100.00
12475;BME280;6302;42.624;23.334;2022-10-03T12:18:15;93313.41;;;15.18;100.00
12475;BME280;6302;42.624;23.334;2022-10-03T12:21:06;93314.59;;;15.01;100.00
12475;BME280;6302;42.624;23.334;2022-10-03T12:23:58;93295.22;;;14.96;100.00
12475;BME280;6302;42.624;23.334;2022-10-03T12:26:37;93288.69;;;15.14;100.00
12475;BME280;6302;42.624;23.334;2022-10-03T12:29:10;93286.69;;;15.18;100.00
12475;BME280;6302;42.624;23.334;2022-10-03T12:31:44;93296.94;;;15.35;99.10
12475;BME280;6302;42.624;23.334;2022-10-03T12:34:27;93286.47;;;15.41;98.47
12475;BME280;6302;42.624;23.334;2022-10-03T12:37:20;93282.63;;;15.42;94.18
12475;BME280;6302;42.624;23.334;2022-10-03T12:40:00;93295.81;;;15.49;90.15
12475;BME280;6302;42.624;23.334;2022-10-03T12:42:33;93299.72;;;15.44;85.99
12475;BME280;6302;42.624;23.334;2022-10-03T12:45:07;93288.03;;;15.54;85.26
12475;BME280;6302;42.624;23.334;2022-10-03T12:47:54;93290.47;;;15.49;84.32
12475;BME280;6302;42.624;23.334;2022-10-03T12:50:40;93295.06;;;15.48;83.36
12475;BME280;6302;42.624;23.334;2022-10-03T12:53:39;93294.97;;;15.36;80.55
12475;BME280;6302;42.624;23.334;2022-10-03T12:56:14;93283.72;;;15.44;83.14
12475;BME280;6302;42.624;23.334;2022-10-03T12:58:51;93301.72;;;15.56;83.50
12475;BME280;6302;42.624;23.334;2022-10-03T13:01:31;93296.31;;;15.60;80.13
12475;BME280;6302;42.624;23.334;2022-10-03T13:04:07;93305.16;;;15.41;79.10
12475;BME280;6302;42.624;23.334;2022-10-03T13:06:43;93311.75;;;15.52;78.70
12475;BME280;6302;42.624;23.334;2022-10-03T13:09:21;93319.25;;;15.57;79.10
12475;BME280;6302;42.624;23.334;2022-10-03T13:12:01;93311.00;;;15.52;76.09
12475;BME280;6302;42.624;23.334;2022-10-03T13:14:42;93305.41;;;15.46;77.16
12475;BME280;6302;42.624;23.334;2022-10-03T13:17:32;93311.88;;;15.33;75.79
12475;BME280;6302;42.624;23.334;2022-10-03T13:20:12;93313.03;;;15.32;76.54
12475;BME280;6302;42.624;23.334;2022-10-03T13:22:45;93327.72;;;15.24;76.21
12475;BME280;6302;42.624;23.334;2022-10-03T13:25:18;93314.88;;;15.19;78.12
12475;BME280;6302;42.624;23.334;2022-10-03T13:27:51;93319.19;;;15.29;77.12
12475;BME280;6302;42.624;23.334;2022-10-03T13:30:24;93310.44;;;15.28;78.16
12475;BME280;6302;42.624;23.334;2022-10-03T13:32:56;93316.19;;;15.27;75.23
12475;BME280;6302;42.624;23.334;2022-10-03T13:35:37;93299.34;;;15.30;77.92
12475;BME280;6302;42.624;23.334;2022-10-03T13:41:45;93293.38;;;15.10;80.56
12475;BME280;6302;42.624;23.334;2022-10-03T13:44:18;93298.97;;;15.15;80.00
12475;BME280;6302;42.624;23.334;2022-10-03T13:46:49;93285.19;;;15.17;78.31
12475;BME280;6302;42.624;23.334;2022-10-03T13:49:25;93297.66;;;15.36;79.23
12475;BME280;6302;42.624;23.334;2022-10-03T13:52:00;93297.50;;;15.43;79.43
12475;BME280;6302;42.624;23.334;2022-10-03T13:55:08;93298.16;;;15.31;77.58
12475;BME280;6302;42.624;23.334;2022-10-03T13:57:39;93303.19;;;15.29;77.83
12475;BME280;6302;42.624;23.334;2022-10-03T14:00:09;93296.00;;;15.26;74.57
12475;BME280;6302;42.624;23.334;2022-10-03T14:02:44;93300.50;;;15.29;76.41
12475;BME280;6302;42.624;23.334;2022-10-03T14:05:38;93288.34;;;15.28;75.32
12475;BME280;6302;42.624;23.334;2022-10-03T14:08:19;93288.00;;;15.26;71.67
12475;BME280;6302;42.624;23.334;2022-10-03T14:11:06;93301.88;;;15.21;72.00
12475;BME280;6302;42.624;23.334;2022-10-03T14:13:44;93307.28;;;15.17;71.37
12475;BME280;6302;42.624;23.334;2022-10-03T14:16:20;93292.22;;;15.11;72.12
12475;BME280;6302;42.624;23.334;2022-10-03T14:18:54;93300.66;;;14.93;71.98
12475;BME280;6302;42.624;23.334;2022-10-03T14:21:38;93297.81;;;14.84;72.17
12475;BME280;6302;42.624;23.334;2022-10-03T14:24:19;93308.44;;;14.71;74.97
12475;BME280;6302;42.624;23.334;2022-10-03T14:26:56;93304.69;;;14.69;75.63
12475;BME280;6302;42.624;23.334;2022-10-03T14:29:31;93319.06;;;14.55;74.25
12475;BME280;6302;42.624;23.334;2022-10-03T14:32:06;93304.38;;;14.47;77.22
12475;BME280;6302;42.624;23.334;2022-10-03T14:34:45;93299.38;;;14.33;77.83
12475;BME280;6302;42.624;23.334;2022-10-03T14:37:23;93292.19;;;14.30;78.01
12475;BME280;6302;42.624;23.334;2022-10-03T14:40:02;93303.56;;;14.34;76.82
12475;BME280;6302;42.624;23.334;2022-10-03T14:42:45;93308.03;;;14.37;77.58
12475;BME280;6302;42.624;23.334;2022-10-03T14:45:16;93307.31;;;14.37;75.81
12475;BME280;6302;42.624;23.334;2022-10-03T14:47:48;93298.69;;;14.29;74.15
12475;BME280;6302;42.624;23.334;2022-10-03T14:50:17;93320.78;;;14.10;74.52
12475;BME280;6302;42.624;23.334;2022-10-03T14:52:50;93308.94;;;13.95;76.23
12475;BME280;6302;42.624;23.334;2022-10-03T14:55:24;93322.31;;;13.91;78.26
12475;BME280;6302;42.624;23.334;2022-10-03T14:57:57;93323.44;;;13.74;79.58
12475;BME280;6302;42.624;23.334;2022-10-03T15:00:33;93321.25;;;13.69;80.19
12475;BME280;6302;42.624;23.334;2022-10-03T15:03:19;93319.25;;;13.53;83.62
12475;BME280;6302;42.624;23.334;2022-10-03T15:05:56;93326.22;;;13.47;86.44
12475;BME280;6302;42.624;23.334;2022-10-03T15:08:30;93337.25;;;13.46;88.81
12475;BME280;6302;42.624;23.334;2022-10-03T15:11:02;93320.47;;;13.29;92.23
12475;BME280;6302;42.624;23.334;2022-10-03T15:13:32;93324.84;;;13.16;94.72
12475;BME280;6302;42.624;23.334;2022-10-03T15:16:01;93331.34;;;13.15;94.87
12475;BME280;6302;42.624;23.334;2022-10-03T15:18:29;93332.03;;;13.19;95.11
12475;BME280;6302;42.624;23.334;2022-10-03T15:20:56;93333.09;;;13.25;94.81
12475;BME280;6302;42.624;23.334;2022-10-03T15:23:27;93334.91;;;13.28;91.47
12475;BME280;6302;42.624;23.334;2022-10-03T15:25:58;93339.44;;;13.31;80.46
12475;BME280;6302;42.624;23.334;2022-10-03T15:28:29;93347.69;;;13.37;82.13
12475;BME280;6302;42.624;23.334;2022-10-03T15:31:07;93346.34;;;13.48;82.17
12475;BME280;6302;42.624;23.334;2022-10-03T15:33:38;93341.72;;;13.52;79.96
12475;BME280;6302;42.624;23.334;2022-10-03T15:36:11;93350.84;;;13.51;80.16
12475;BME280;6302;42.624;23.334;2022-10-03T15:38:41;93344.16;;;13.43;75.06
12475;BME280;6302;42.624;23.334;2022-10-03T15:41:12;93348.31;;;13.44;76.98
12475;BME280;6302;42.624;23.334;2022-10-03T15:43:49;93362.56;;;13.34;77.26
12475;BME280;6302;42.624;23.334;2022-10-03T15:46:30;93363.91;;;13.23;78.71
12475;BME280;6302;42.624;23.334;2022-10-03T15:49:01;93358.75;;;13.12;79.30
12475;BME280;6302;42.624;23.334;2022-10-03T15:51:29;93344.91;;;12.97;78.75
12475;BME280;6302;42.624;23.334;2022-10-03T15:53:58;93359.09;;;12.91;79.51
12475;BME280;6302;42.624;23.334;2022-10-03T15:56:31;93364.81;;;12.89;80.81
12475;BME280;6302;42.624;23.334;2022-10-03T15:59:04;93358.84;;;12.82;82.34
12475;BME280;6302;42.624;23.334;2022-10-03T16:01:36;93360.81;;;12.78;82.25
12475;BME280;6302;42.624;23.334;2022-10-03T16:04:06;93368.63;;;12.62;81.90
12475;BME280;6302;42.624;23.334;2022-10-03T16:06:42;93361.81;;;12.61;81.53
12475;BME280;6302;42.624;23.334;2022-10-03T16:09:17;93368.75;;;12.55;82.19
12475;BME280;6302;42.624;23.334;2022-10-03T16:11:58;93368.09;;;12.47;83.21
12475;BME280;6302;42.624;23.334;2022-10-03T16:14:33;93362.50;;;12.42;84.06
12475;BME280;6302;42.624;23.334;2022-10-03T16:17:12;93365.38;;;12.51;85.07
12475;BME280;6302;42.624;23.334;2022-10-03T16:19:46;93370.81;;;12.44;85.25
12475;BME280;6302;42.624;23.334;2022-10-03T16:22:21;93379.59;;;12.37;84.65
12475;BME280;6302;42.624;23.334;2022-10-03T16:25:01;93384.53;;;12.38;85.69
12475;BME280;6302;42.624;23.334;2022-10-03T16:27:32;93390.16;;;12.44;85.65
12475;BME280;6302;42.624;23.334;2022-10-03T16:30:16;93393.22;;;12.43;86.60
12475;BME280;6302;42.624;23.334;2022-10-03T16:32:49;93388.63;;;12.47;88.39